Time;durP1;ratioP1;P1;durP2;ratioP2;P2;SDS_P1;SDS_P2;PMS_P1;PMS_P2;Temp;Humidity;BMP_temperature;BMP_pressure;BME280_temperature;BME280_humidity;BME280_pressure;Samples;Min_cycle;Max_cycle;Signal;HPM_P1;HPM_P2
2022/05/30 00:01:22;;;;;;;8.57;1.85;;;9.90;99.90;;;-144.05;66.82;125687.94;4995647;28;20117;-87
2022/05/30 00:03:50;;;;;;;5.30;1.80;;;9.90;99.90;;;-144.05;67.23;125687.94;4995252;28;20375;-88
2022/05/30 00:06:21;;;;;;;8.32;1.80;;;9.90;99.90;;;-144.05;66.38;125687.94;4978782;28;20066;-85
2022/05/30 00:08:46;;;;;;;4.22;1.60;;;9.90;99.90;;;-144.05;66.68;125687.94;4978609;28;20038;-85
2022/05/30 00:11:15;;;;;;;6.25;1.88;;;9.90;99.90;;;-144.05;66.77;125687.94;4984545;28;20113;-88
2022/05/30 00:13:43;;;;;;;5.63;1.65;;;9.90;99.90;;;-144.05;66.89;125687.94;4959525;28;20032;-88
2022/05/30 00:16:16;;;;;;;11.57;1.75;;;9.90;99.90;;;-144.05;66.70;125687.94;4961340;28;20030;-85
2022/05/30 00:18:44;;;;;;;9.30;1.70;;;9.90;99.90;;;-144.05;66.53;125687.94;4961089;28;20104;-85
2022/05/30 00:21:11;;;;;;;7.60;1.30;;;9.90;99.90;;;-144.05;66.46;125687.94;4958912;28;20459;-87
2022/05/30 00:23:37;;;;;;;6.65;1.77;;;9.90;99.90;;;-144.05;66.51;125687.94;4959608;28;20031;-88
2022/05/30 00:26:08;;;;;;;7.20;1.88;;;9.80;99.90;;;-144.05;66.16;125687.94;4959100;28;20027;-87
2022/05/30 00:28:36;;;;;;;5.78;1.58;;;9.90;99.90;;;-144.05;66.10;125687.94;4958450;28;20612;-86
2022/05/30 00:31:08;;;;;;;6.70;1.92;;;9.80;99.90;;;-144.05;66.34;125687.94;4960637;28;20027;-87
2022/05/30 00:33:34;;;;;;;3.08;1.40;;;9.80;99.90;;;-144.05;66.24;125687.94;4958826;28;20054;-86
2022/05/30 00:36:00;;;;;;;7.18;1.58;;;9.80;99.90;;;-144.05;66.25;125687.94;4959657;28;20042;-87
2022/05/30 00:38:26;;;;;;;6.55;1.50;;;9.80;99.90;;;-144.05;65.96;125687.94;4959085;28;20035;-86
2022/05/30 00:40:51;;;;;;;6.70;1.33;;;9.80;99.90;;;-144.05;66.02;125687.94;4959833;28;20130;-85
2022/05/30 00:43:39;;;;;;;6.38;1.70;;;9.80;99.90;;;-144.05;66.52;125687.94;4959856;28;20488;-88
2022/05/30 00:46:18;;;;;;;5.22;2.03;;;9.70;99.90;;;-144.05;66.53;125687.94;4959321;28;20031;-87
2022/05/30 00:49:06;;;;;;;5.63;1.88;;;9.70;99.90;;;-144.05;66.75;125687.94;4959327;28;20031;-86
2022/05/30 00:51:50;;;;;;;8.52;2.03;;;9.70;99.90;;;-144.05;66.36;125687.94;4959847;28;20043;-86
2022/05/30 00:54:27;;;;;;;10.05;1.98;;;9.70;99.90;;;-144.05;66.65;125687.94;4976558;28;20403;-88
2022/05/30 00:57:19;;;;;;;7.47;1.38;;;9.70;99.90;;;-144.05;66.49;125687.94;4960995;28;20034;-88
2022/05/30 01:00:07;;;;;;;6.80;1.98;;;9.70;99.90;;;-144.05;66.50;125687.94;4961113;28;20031;-86
2022/05/30 01:02:38;;;;;;;6.63;2.10;;;9.70;99.90;;;-144.05;66.14;125687.94;4959928;28;20034;-88
2022/05/30 01:08:01;;;;;;;7.07;1.88;;;9.60;99.90;;;-144.05;66.60;125687.94;4962053;29;20034;-86
2022/05/30 01:10:28;;;;;;;9.18;1.73;;;9.70;99.90;;;-144.05;66.75;125687.94;4964686;28;20019;-90
2022/05/30 01:12:58;;;;;;;7.03;1.67;;;9.60;99.90;;;-144.05;67.05;125687.94;4979631;28;20037;-86
2022/05/30 01:15:30;;;;;;;7.22;1.67;;;9.60;99.90;;;-144.05;67.29;125687.94;4981856;28;20034;-86
2022/05/30 01:18:17;;;;;;;7.22;1.80;;;9.70;99.90;;;-144.05;67.19;125687.94;4996668;28;20126;-86
2022/05/30 01:21:31;;;;;;;7.43;1.83;;;9.60;99.90;;;-144.05;67.51;125687.94;4993551;28;20049;-87
2022/05/30 01:24:37;;;;;;;11.20;2.40;;;9.60;99.90;;;-144.05;67.36;125687.94;4994510;28;20121;-87
2022/05/30 01:27:13;;;;;;;8.63;1.80;;;9.60;99.90;;;-144.05;67.47;125687.94;4993962;28;20121;-86
2022/05/30 01:29:49;;;;;;;;;;;9.60;99.90;;;-144.05;67.29;125687.94;4994263;28;20418;-87
2022/05/30 01:32:21;;;;;;;11.98;2.50;;;9.60;99.90;;;-144.05;67.13;125687.94;4994729;28;20028;-89
2022/05/30 01:34:48;;;;;;;7.10;1.88;;;9.60;99.90;;;-144.05;67.53;125687.94;4977994;28;20055;-86
2022/05/30 01:37:14;;;;;;;5.03;1.50;;;9.60;99.90;;;-144.05;67.81;125687.94;4977845;28;20030;-86
2022/05/30 01:39:41;;;;;;;9.02;2.63;;;9.50;99.90;;;-144.05;68.07;125687.94;4979325;28;20026;-86
2022/05/30 01:42:07;;;;;;;10.57;2.55;;;9.50;99.90;;;-144.05;68.28;125687.94;4984077;28;20046;-84
2022/05/30 01:44:34;;;;;;;9.85;2.25;;;9.50;99.90;;;-144.05;68.29;125687.94;4977545;28;20109;-86
2022/05/30 01:47:00;;;;;;;7.72;1.35;;;9.50;99.90;;;-144.05;68.06;125687.94;4978324;28;20023;-85
2022/05/30 01:49:26;;;;;;;6.18;1.40;;;9.50;99.90;;;-144.05;68.03;125687.94;4977231;28;20392;-86
2022/05/30 01:51:54;;;;;;;5.55;1.80;;;9.50;99.90;;;-144.05;68.13;125687.94;4977618;28;20047;-87
2022/05/30 01:54:21;;;;;;;4.28;1.50;;;9.40;99.90;;;-144.05;68.33;125687.94;4976550;28;20039;-86
2022/05/30 01:56:48;;;;;;;8.93;1.52;;;9.40;99.90;;;-144.05;68.35;125687.94;4976334;28;20502;-85
2022/05/30 01:59:15;;;;;;;6.78;1.80;;;9.40;99.90;;;-144.05;68.89;125687.94;4976545;28;20097;-85
2022/05/30 02:01:45;;;;;;;9.43;1.77;;;9.40;99.90;;;-144.05;69.11;125687.94;4976088;28;20491;-85
2022/05/30 02:04:15;;;;;;;7.93;2.00;;;9.50;99.90;;;-144.05;68.45;125687.94;4976555;28;20039;-87
2022/05/30 02:06:41;;;;;;;5.97;1.50;;;9.40;99.90;;;-144.05;68.35;125687.94;4976710;28;20041;-87
2022/05/30 02:09:08;;;;;;;7.60;1.67;;;9.40;99.90;;;-144.05;68.38;125687.94;4975875;28;20026;-87
2022/05/30 02:11:36;;;;;;;9.20;1.90;;;9.40;99.90;;;-144.05;68.77;125687.94;4962449;28;20031;-85
2022/05/30 02:14:03;;;;;;;7.40;1.90;;;9.40;99.90;;;-144.05;68.57;125687.94;4958133;28;20046;-88
2022/05/30 02:19:17;;;;;;;9.43;2.00;;;9.50;99.90;;;-144.05;68.71;125687.94;4959051;29;20066;-87
2022/05/30 02:21:43;;;;;;;6.63;1.60;;;9.40;99.90;;;-144.05;68.68;125687.94;4956378;28;20027;-86
2022/05/30 02:24:09;;;;;;;8.95;1.85;;;9.40;99.90;;;-144.05;68.71;125687.94;4957682;28;20407;-85
2022/05/30 02:26:37;;;;;;;5.03;1.30;;;9.40;99.90;;;-144.05;68.67;125687.94;4958615;28;20038;-86
2022/05/30 02:29:05;;;;;;;5.07;1.67;;;9.40;99.90;;;-144.05;68.59;125687.94;4974080;28;20031;-86
2022/05/30 02:31:31;;;;;;;7.05;1.80;;;9.40;99.90;;;-144.05;68.54;125687.94;4956848;28;20057;-86
2022/05/30 02:36:44;;;;;;;9.35;2.45;;;9.40;99.90;;;-144.05;68.55;125687.94;4960831;29;20118;-85
2022/05/30 02:39:31;;;;;;;5.03;1.42;;;9.40;99.90;;;-144.05;69.04;125687.94;4959259;28;20035;-87
2022/05/30 02:41:57;;;;;;;7.03;1.40;;;9.40;99.90;;;-144.05;68.95;125687.94;4965433;28;20130;-87
2022/05/30 02:44:25;;;;;;;7.82;1.60;;;9.40;99.90;;;-144.05;69.03;125687.94;4965162;28;20063;-86
2022/05/30 02:46:57;;;;;;;9.20;1.70;;;9.40;99.90;;;-144.05;68.87;125687.94;4980134;28;20030;-85
2022/05/30 02:49:25;;;;;;;6.85;1.45;;;9.40;99.90;;;-144.05;68.94;125687.94;4980272;28;20028;-86
2022/05/30 02:51:53;;;;;;;5.70;1.60;;;9.40;99.90;;;-144.05;69.38;125687.94;4963518;28;20027;-87
2022/05/30 02:54:19;;;;;;;6.50;1.88;;;9.40;99.90;;;-144.05;69.55;125687.94;4964075;28;20027;-86
2022/05/30 02:57:03;;;;;;;3.95;1.30;;;9.40;99.90;;;-144.05;70.03;125687.94;4961566;28;20027;-85
2022/05/30 02:59:29;;;;;;;6.07;1.48;;;9.40;99.90;;;-144.05;70.10;125687.94;4956694;28;20027;-84
2022/05/30 03:01:55;;;;;;;8.80;1.67;;;9.40;99.90;;;-144.05;70.24;125687.94;4958910;28;20419;-87
2022/05/30 03:04:21;;;;;;;6.90;1.65;;;9.30;99.90;;;-144.05;70.44;125687.94;4956565;28;20118;-87
2022/05/30 03:06:49;;;;;;;7.40;1.88;;;9.30;99.90;;;-144.05;70.32;125687.94;4959162;28;20027;-84
2022/05/30 03:09:16;;;;;;;7.07;2.42;;;9.30;99.90;;;-144.05;70.58;125687.94;4961420;28;20042;-86
2022/05/30 03:11:42;;;;;;;6.65;2.17;;;9.30;99.90;;;-144.05;71.02;125687.94;4992991;28;20031;-86
2022/05/30 03:14:08;;;;;;;8.20;1.95;;;9.40;99.90;;;-144.05;70.83;125687.94;4997615;28;20494;-86
2022/05/30 03:16:34;;;;;;;8.60;2.45;;;9.30;99.90;;;-144.05;70.81;125687.94;4983266;28;20441;-88
2022/05/30 05:02:46;;;;;;;8.82;2.30;;;9.90;99.90;;;-144.05;65.94;125687.94;4979584;28;20043;-85
2022/05/30 05:05:13;;;;;;;13.13;2.67;;;9.90;99.90;;;-144.05;65.59;125687.94;4979647;28;20042;-87
2022/05/30 05:07:55;;;;;;;8.20;1.98;;;10.00;99.90;;;-144.05;65.61;125687.94;4979432;28;20121;-84
2022/05/30 05:10:46;;;;;;;7.30;1.77;;;10.10;99.90;;;-144.05;65.73;125687.94;4979404;28;20093;-86
2022/05/30 05:13:12;;;;;;;10.98;2.80;;;10.20;99.90;;;-144.05;64.19;125687.94;4978705;28;20414;-86
2022/05/30 05:15:38;;;;;;;12.35;2.50;;;10.30;99.90;;;-144.05;63.85;125687.94;4996021;28;20030;-86
2022/05/30 05:18:05;;;;;;;11.75;2.83;;;10.30;99.90;;;-144.05;63.76;125687.94;4996307;28;20026;-85
2022/05/30 05:20:42;;;;;;;8.75;2.00;;;10.30;99.90;;;-144.05;64.28;125687.94;4980456;28;20066;-85
2022/05/30 05:23:09;;;;;;;10.30;2.08;;;10.30;99.90;;;-144.05;63.76;125687.94;4981663;28;20113;-88
2022/05/30 05:25:41;;;;;;;9.13;1.90;;;10.40;99.90;;;-144.05;64.01;125687.94;4981864;28;20031;-85
2022/05/30 05:28:08;;;;;;;8.05;2.05;;;10.50;99.90;;;-144.05;63.46;125687.94;4978679;28;20031;-87
2022/05/30 05:30:35;;;;;;;8.18;2.38;;;10.50;99.90;;;-144.05;63.23;125687.94;4985119;28;20011;-84
2022/05/30 05:33:01;;;;;;;9.88;2.38;;;10.50;99.90;;;-144.05;63.16;125687.94;5014523;28;20050;-86
2022/05/30 05:35:27;;;;;;;5.63;1.63;;;10.60;99.90;;;-144.05;62.77;125687.94;4982614;28;20026;-86
2022/05/30 05:37:53;;;;;;;7.32;2.83;;;10.80;99.90;;;-144.05;62.45;125687.94;4979751;28;20117;-84
2022/05/30 05:40:19;;;;;;;16.17;2.08;;;10.70;99.90;;;-144.05;62.25;125687.94;4979667;28;20062;-85
2022/05/30 05:42:45;;;;;;;11.73;2.47;;;10.80;99.90;;;-144.05;62.40;125687.94;4995372;28;20054;-84
2022/05/30 05:45:11;;;;;;;15.02;2.80;;;11.00;99.90;;;-144.05;62.19;125687.94;4978790;28;20038;-87
2022/05/30 05:47:37;;;;;;;11.90;2.75;;;11.00;99.90;;;-144.05;61.35;125687.94;4979478;28;20054;-86
2022/05/30 05:50:05;;;;;;;11.55;2.05;;;11.10;99.90;;;-144.05;61.29;125687.94;4978606;28;20491;-84
2022/05/30 05:52:32;;;;;;;11.07;2.10;;;11.20;99.90;;;-144.05;60.76;125687.94;4978234;28;20035;-85
2022/05/30 05:54:59;;;;;;;10.27;2.10;;;11.20;99.90;;;-144.05;60.54;125687.94;4978128;28;20049;-87
2022/05/30 05:57:25;;;;;;;8.25;2.50;;;11.30;99.90;;;-144.05;59.90;125687.94;4980318;28;20038;-87
2022/05/30 05:59:52;;;;;;;9.52;2.30;;;11.40;99.90;;;-144.05;59.26;125687.94;4978597;28;20066;-86
2022/05/30 06:02:19;;;;;;;9.88;2.30;;;11.50;99.90;;;-144.05;59.28;125687.94;4978033;28;20045;-84
2022/05/30 06:04:46;;;;;;;7.10;2.28;;;11.50;99.90;;;-144.05;59.09;125687.94;4978181;28;20046;-87
2022/05/30 06:07:13;;;;;;;11.80;2.08;;;11.70;99.90;;;-144.05;58.45;125687.94;4978185;28;20161;-84
2022/05/30 06:09:39;;;;;;;8.70;2.00;;;11.80;99.90;;;-144.05;58.27;125687.94;4978292;28;20062;-85
2022/05/30 06:12:07;;;;;;;8.85;2.00;;;12.00;99.90;;;-144.05;57.18;125687.94;4960409;28;20228;-83
2022/05/30 06:14:33;;;;;;;7.80;1.85;;;12.10;99.90;;;-144.05;56.38;125687.94;4958478;28;20039;-85
2022/05/30 06:17:01;;;;;;;6.13;2.50;;;12.20;99.90;;;-144.05;55.95;125687.94;4957897;28;20033;-85
2022/05/30 06:19:30;;;;;;;8.75;1.88;;;12.40;99.90;;;-144.05;56.15;125687.94;4957670;28;20031;-87
2022/05/30 06:21:56;;;;;;;8.88;1.70;;;12.50;99.90;;;-144.05;55.76;125687.94;4957577;28;20023;-85
2022/05/30 06:24:22;;;;;;;10.45;2.80;;;12.70;99.90;;;-144.05;54.95;125687.94;4958050;28;20027;-85
2022/05/30 06:26:50;;;;;;;7.65;2.30;;;12.80;99.90;;;-144.05;54.07;125687.94;4973904;28;20027;-85
2022/05/30 06:29:16;;;;;;;9.40;2.30;;;12.80;99.90;;;-144.05;53.16;125687.94;4957690;28;20031;-85
2022/05/30 06:31:46;;;;;;;10.30;2.35;;;12.90;99.90;;;-144.05;52.14;125687.94;4957546;28;20675;-87
2022/05/30 06:34:12;;;;;;;10.05;2.10;;;12.80;99.90;;;-144.05;52.55;125687.94;4973800;28;20110;-85
2022/05/30 06:36:42;;;;;;;9.60;1.88;;;12.90;99.90;;;-144.05;51.50;125687.94;4957596;28;20505;-86
2022/05/30 06:39:10;;;;;;;4.93;1.77;;;12.80;99.90;;;-144.05;51.65;125687.94;4957317;28;20110;-86
2022/05/30 06:41:36;;;;;;;11.13;2.70;;;12.80;99.90;;;-144.05;51.49;125687.94;4973789;28;20035;-85
2022/05/30 06:44:09;;;;;;;12.52;2.20;;;13.00;99.90;;;-144.05;51.07;125687.94;4957470;28;20066;-87
2022/05/30 06:46:37;;;;;;;9.88;2.10;;;13.00;99.90;;;-144.05;52.00;125687.94;4957466;28;20034;-86
2022/05/30 06:49:07;;;;;;;11.35;2.20;;;12.90;99.90;;;-144.05;52.17;125687.94;4957926;28;20475;-86
2022/05/30 06:51:36;;;;;;;9.13;2.30;;;13.00;99.90;;;-144.05;51.97;125687.94;4957902;28;20164;-88
2022/05/30 06:54:06;;;;;;;7.80;2.10;;;13.10;99.90;;;-144.05;51.29;125687.94;4957685;28;20035;-84
2022/05/30 06:58:11;;;;;;;11.93;2.50;;;13.40;99.90;;;-144.05;50.96;125687.94;4958570;28;20119;-85
2022/05/30 06:59:25;;;;;;;5.65;2.13;;;13.50;99.90;;;-144.05;50.72;125687.94;4958567;28;20118;-88
2022/05/30 07:01:52;;;;;;;8.05;2.00;;;13.80;99.90;;;-144.05;49.07;125687.94;4957189;28;20073;-85
2022/05/30 07:04:19;;;;;;;8.82;2.28;;;14.40;99.90;;;-144.05;48.34;125687.94;4957608;28;20039;-85
2022/05/30 07:06:45;;;;;;;8.95;2.35;;;14.70;99.90;;;-144.05;46.88;125687.94;4957597;28;20028;-87
2022/05/30 07:09:14;;;;;;;10.07;1.83;;;15.00;99.90;;;-144.05;46.55;125687.94;4957475;28;20067;-87
2022/05/30 07:11:40;;;;;;;11.65;1.92;;;15.10;99.90;;;-144.05;46.40;125687.94;4956735;28;20158;-86
2022/05/30 07:14:10;;;;;;;6.15;2.00;;;15.00;99.90;;;-144.05;46.33;125687.94;4958060;28;20427;-86
2022/05/30 07:16:37;;;;;;;6.70;1.63;;;15.20;99.90;;;-144.05;45.78;125687.94;4957092;28;20487;-84
2022/05/30 07:19:03;;;;;;;8.77;1.40;;;15.30;99.90;;;-144.05;43.25;125687.94;4956340;28;20372;-87
2022/05/30 07:21:29;;;;;;;5.47;1.30;;;15.60;99.90;;;-144.05;43.00;125687.94;4956588;28;20488;-86
2022/05/30 07:23:55;;;;;;;6.78;1.80;;;15.80;99.90;;;-144.05;43.11;125687.94;4956379;28;20554;-86
2022/05/30 07:26:22;;;;;;;10.90;2.08;;;16.10;99.90;;;-144.05;42.10;125687.94;4956568;28;20027;-88
2022/05/30 07:28:51;;;;;;;6.28;1.73;;;16.10;99.90;;;-144.05;41.83;125687.94;4956226;28;20031;-86
2022/05/30 07:31:21;;;;;;;9.63;2.00;;;16.40;99.90;;;-144.05;40.88;125687.94;4956637;28;20031;-87
2022/05/30 07:33:49;;;;;;;6.05;1.67;;;16.50;99.90;;;-144.05;41.60;125687.94;4955516;28;20046;-87
2022/05/30 07:36:25;;;;;;;7.28;1.77;;;16.60;99.90;;;-144.05;41.90;125687.94;4961731;28;20112;-83
2022/05/30 07:38:53;;;;;;;7.93;1.58;;;16.30;99.90;;;-144.05;42.62;125687.94;4975889;28;20517;-86
2022/05/30 07:41:24;;;;;;;9.98;1.90;;;16.10;99.90;;;-144.05;43.19;125687.94;4957731;28;20069;-87
2022/05/30 07:43:50;;;;;;;8.25;1.67;;;15.80;99.90;;;-144.05;43.25;125687.94;4958922;28;20027;-89
2022/05/30 07:46:19;;;;;;;8.75;1.55;;;15.60;99.90;;;-144.05;43.46;125687.94;4956755;28;20555;-87
2022/05/30 07:48:46;;;;;;;5.25;1.83;;;15.20;99.90;;;-144.05;43.57;125687.94;4956516;28;20116;-86
2022/05/30 07:51:15;;;;;;;9.60;1.73;;;15.00;99.90;;;-144.05;44.23;125687.94;4956409;28;20115;-86
2022/05/30 07:53:43;;;;;;;9.40;1.88;;;14.80;99.90;;;-144.05;44.71;125687.94;4960958;28;20035;-89
2022/05/30 07:56:16;;;;;;;6.18;1.70;;;14.70;99.90;;;-144.05;45.01;125687.94;4960786;28;20124;-86
2022/05/30 07:58:44;;;;;;;7.22;1.85;;;14.60;99.90;;;-144.05;44.53;125687.94;4959839;28;20031;-84
2022/05/30 08:01:20;;;;;;;10.82;1.90;;;14.50;99.90;;;-144.05;43.73;125687.94;4959675;28;20349;-88
2022/05/30 08:03:47;;;;;;;;;;;14.50;99.90;;;-144.05;42.91;125687.94;4960249;28;20508;-86
2022/05/30 08:06:21;;;;;;;6.25;1.60;;;14.30;99.90;;;-144.05;43.71;125687.94;4960263;28;19914;-86
2022/05/30 08:08:50;;;;;;;10.15;1.70;;;14.40;99.90;;;-144.05;43.77;125687.94;4959941;28;20050;-86
2022/05/30 08:11:17;;;;;;;7.25;1.90;;;14.50;99.90;;;-144.05;42.91;125687.94;4970072;28;20039;-86
2022/05/30 08:13:48;;;;;;;7.63;1.70;;;14.60;99.90;;;-144.05;41.15;125687.94;4979929;28;20117;-87
2022/05/30 08:16:21;;;;;;;8.98;1.88;;;15.00;99.90;;;-144.05;40.03;125687.94;4978852;28;20027;-83
2022/05/30 08:18:48;;;;;;;6.43;1.60;;;15.70;99.90;;;-144.05;39.04;125687.94;4979334;28;20081;-86
2022/05/30 08:21:16;;;;;;;6.43;1.70;;;16.40;95.90;;;-144.05;38.89;125687.94;4978849;28;20027;-85
2022/05/30 08:23:44;;;;;;;5.60;1.23;;;17.00;97.70;;;-144.05;38.04;125687.94;4979523;28;20034;-87
2022/05/30 08:26:15;;;;;;;5.55;1.27;;;17.50;93.60;;;-144.05;37.99;125687.94;4981561;28;20038;-85
2022/05/30 08:28:41;;;;;;;8.95;1.80;;;17.60;90.20;;;-144.05;38.56;125687.94;4981457;28;20042;-87
2022/05/30 08:31:09;;;;;;;10.18;2.00;;;18.00;93.40;;;-144.05;39.51;125687.94;4983945;28;20027;-87
2022/05/30 08:33:35;;;;;;;9.70;1.80;;;18.00;92.00;;;-144.05;36.70;125687.94;4985385;28;20086;-83
2022/05/30 08:36:09;;;;;;;11.88;2.25;;;18.10;81.30;;;-144.05;36.14;125687.94;4982495;28;20513;-88
2022/05/30 08:38:39;;;;;;;6.88;1.27;;;18.00;77.80;;;-144.05;36.78;125687.94;4979067;28;20038;-84
2022/05/30 08:44:02;;;;;;;10.40;2.08;;;17.50;87.40;;;-144.05;37.88;125687.94;4979224;28;20054;-86
2022/05/30 08:46:55;;;;;;;6.53;1.60;;;17.30;84.50;;;-144.05;36.87;125687.94;4978656;28;20022;-86
2022/05/30 08:49:42;;;;;;;8.73;1.67;;;16.90;83.70;;;-144.05;38.51;125687.94;4980830;28;20375;-85
2022/05/30 08:52:25;;;;;;;4.60;1.13;;;16.70;87.90;;;-144.05;38.21;125687.94;4982662;28;20026;-84
2022/05/30 08:55:24;;;;;;;6.53;1.40;;;16.30;87.00;;;-144.05;38.62;125687.94;5000761;28;20039;-87
2022/05/30 08:58:57;;;;;;;4.85;1.13;;;16.20;88.20;;;-144.05;37.70;125687.94;4983189;28;20082;-86
2022/05/30 09:01:39;;;;;;;4.55;1.10;;;16.00;84.00;;;-144.05;38.13;125687.94;4977829;28;20035;-86
2022/05/30 09:04:25;;;;;;;6.97;1.10;;;15.90;87.30;;;-144.05;38.01;125687.94;4978019;28;20039;-85
2022/05/30 09:07:16;;;;;;;4.13;1.00;;;15.80;86.70;;;-144.05;38.27;125687.94;4978595;28;20089;-85
2022/05/30 09:10:01;;;;;;;3.53;1.23;;;15.60;86.70;;;-144.05;39.09;125687.94;4978045;28;20030;-85
2022/05/30 09:13:06;;;;;;;4.35;1.30;;;15.70;91.20;;;-144.05;37.23;125687.94;4959050;28;20431;-85
2022/05/30 09:16:01;;;;;;;4.63;1.08;;;15.80;82.50;;;-144.05;37.64;125687.94;4963625;28;20077;-85
2022/05/30 09:18:48;;;;;;;4.63;0.82;;;15.70;82.40;;;-144.05;37.82;125687.94;4963858;28;20111;-87
2022/05/30 09:21:18;;;;;;;5.88;1.00;;;15.90;87.00;;;-144.05;37.05;125687.94;4961467;28;20043;-86
2022/05/30 09:23:45;;;;;;;4.80;0.75;;;16.20;81.50;;;-144.05;36.52;125687.94;4958372;28;20070;-86
2022/05/30 09:26:26;;;;;;;3.88;0.90;;;16.50;79.60;;;-144.05;36.70;125687.94;4956472;29;20398;-86
2022/05/30 09:29:00;;;;;;;6.45;0.98;;;16.70;79.80;;;-144.05;35.74;125687.94;4956221;28;20027;-83
2022/05/30 09:31:48;;;;;;;4.22;0.95;;;16.70;75.90;;;-144.05;34.38;125687.94;4956882;29;20117;-85
2022/05/30 09:34:48;;;;;;;1.27;0.60;;;16.60;70.50;;;-144.05;34.64;125687.94;4956155;28;20033;-86
2022/05/30 09:37:35;;;;;;;4.13;0.85;;;16.60;71.60;;;-144.05;34.39;125687.94;4957806;28;20038;-86
2022/05/30 09:40:01;;;;;;;3.00;0.90;;;16.60;71.10;;;-144.05;35.22;125687.94;4956907;28;20067;-85
2022/05/30 09:42:37;;;;;;;3.20;1.00;;;16.60;73.10;;;-144.05;36.02;125687.94;4966490;28;20047;-85
2022/05/30 09:45:12;;;;;;;4.82;1.02;;;16.70;76.30;;;-144.05;36.36;125687.94;4971038;28;20086;-83
2022/05/30 09:47:58;;;;;;;;;;;16.80;78.30;;;-144.05;36.00;125687.94;4974431;28;20062;-83
2022/05/30 09:50:25;;;;;;;4.07;1.13;;;16.70;76.10;;;-144.05;36.87;125687.94;4958007;28;19910;-85
2022/05/30 09:52:51;;;;;;;3.97;1.20;;;16.70;80.90;;;-144.05;37.74;125687.94;4958063;28;20039;-85
2022/05/30 09:55:51;;;;;;;5.25;1.38;;;16.70;84.40;;;-144.05;36.94;125687.94;4958688;28;20031;-86
2022/05/30 09:58:46;;;;;;;4.72;1.40;;;16.70;80.10;;;-144.05;37.52;125687.94;4957332;28;20027;-84
2022/05/30 10:01:24;;;;;;;4.10;1.10;;;16.50;82.80;;;-144.05;38.32;125687.94;4957560;28;20055;-87
2022/05/30 10:03:56;;;;;;;4.10;1.17;;;16.60;86.10;;;-144.05;38.04;125687.94;4956914;28;20042;-86
2022/05/30 10:06:26;;;;;;;4.68;0.82;;;16.60;85.90;;;-144.05;37.06;125687.94;4957335;28;20027;-86
2022/05/30 10:09:23;;;;;;;5.95;1.17;;;16.60;82.50;;;-144.05;37.29;125687.94;4958296;28;20117;-86
2022/05/30 10:11:58;;;;;;;1.95;0.85;;;16.50;82.00;;;-144.05;37.00;125687.94;4988937;28;20035;-84
2022/05/30 10:14:35;;;;;;;5.68;1.42;;;16.40;81.30;;;-144.05;37.45;125687.94;4976615;28;20031;-84
2022/05/30 10:17:29;;;;;;;4.28;0.90;;;16.60;81.80;;;-144.05;35.60;125687.94;4992960;28;20435;-85
2022/05/30 10:19:56;;;;;;;3.70;0.82;;;16.60;75.20;;;-144.05;36.30;125687.94;4993081;28;20031;-86
2022/05/30 10:30:44;;;;;;;2.85;0.73;;;17.80;67.20;;;-144.05;32.81;125687.94;4978428;28;20120;-87
2022/05/30 10:33:31;;;;;;;2.33;0.85;;;18.20;66.90;;;-144.05;32.03;125687.94;4976470;28;20049;-85
2022/05/30 10:36:44;;;;;;;3.10;0.95;;;19.10;65.00;;;-144.05;30.11;125687.94;4992689;28;20089;-87
2022/05/30 10:39:59;;;;;;;2.08;0.80;;;19.00;60.20;;;-144.05;31.16;125687.94;4992472;28;20031;-85
2022/05/30 10:42:53;;;;;;;3.30;1.20;;;18.50;62.10;;;-144.05;32.14;125687.94;4980119;28;20038;-86
2022/05/30 10:45:47;;;;;;;2.65;0.90;;;17.90;63.00;;;-144.05;33.28;125687.94;4976260;28;20049;-88
2022/05/30 10:48:37;;;;;;;2.42;0.80;;;17.40;66.40;;;-144.05;33.84;125687.94;4992235;28;20114;-86
2022/05/30 10:51:22;;;;;;;2.05;0.93;;;17.00;67.40;;;-144.05;34.27;125687.94;4976354;28;20033;-85
2022/05/30 10:54:02;;;;;;;4.32;1.45;;;16.70;68.80;;;-144.05;35.33;125687.94;4975182;28;20038;-85
2022/05/30 10:56:42;;;;;;;4.85;1.02;;;16.30;71.80;;;-144.05;36.05;125687.94;4975741;28;20031;-85
2022/05/30 10:59:55;;;;;;;5.22;1.38;;;16.00;73.60;;;-144.05;36.70;125687.94;4975829;28;20049;-85
2022/05/30 11:02:57;;;;;;;4.20;1.42;;;15.80;75.60;;;-144.05;37.09;125687.94;4993040;28;20042;-85
2022/05/30 11:05:46;;;;;;;6.50;1.15;;;15.80;76.90;;;-144.05;37.09;125687.94;4992594;28;20110;-86
2022/05/30 11:09:13;;;;;;;5.85;1.20;;;15.70;78.80;;;-144.05;36.75;125687.94;4975763;28;20046;-85
2022/05/30 11:12:06;;;;;;;3.80;1.13;;;15.90;78.40;;;-144.05;36.52;125687.94;4975662;28;20035;-84
2022/05/30 11:15:23;;;;;;;3.50;1.38;;;16.00;78.30;;;-144.05;35.19;125687.94;4993194;28;20034;-84
2022/05/30 11:18:19;;;;;;;3.08;1.05;;;16.10;75.20;;;-144.05;35.69;125687.94;4991840;28;20035;-86
2022/05/30 11:21:33;;;;;;;1.60;0.80;;;16.30;76.70;;;-144.05;34.91;125687.94;4976135;28;20034;-85
2022/05/30 11:24:05;;;;;;;2.67;0.98;;;16.60;73.60;;;-144.05;34.65;125687.94;4976186;28;20034;-84
2022/05/30 11:27:13;;;;;;;4.93;1.05;;;17.00;72.30;;;-144.05;34.73;125687.94;4976312;28;20042;-87
2022/05/30 11:29:52;;;;;;;4.60;1.13;;;17.40;73.60;;;-144.05;33.72;125687.94;4995840;28;20379;-86
2022/05/30 11:32:54;;;;;;;3.10;1.20;;;17.80;69.30;;;-144.05;33.56;125687.94;4979740;28;20035;-86
2022/05/30 11:35:23;;;;;;;5.30;1.27;;;18.10;69.90;;;-144.05;32.96;125687.94;4980926;28;20521;-85
2022/05/30 11:38:27;;;;;;;5.15;1.50;;;18.40;67.50;;;-144.05;32.49;125687.94;4996836;28;20058;-85
2022/05/30 11:41:24;;;;;;;4.35;1.17;;;18.30;63.80;;;-144.05;33.32;125687.94;4996453;28;20121;-85
2022/05/30 11:44:24;;;;;;;3.20;1.30;;;18.50;68.30;;;-144.05;33.06;125687.94;4996249;28;20479;-87
2022/05/30 11:47:12;;;;;;;3.85;1.20;;;18.30;66.60;;;-144.05;33.98;125687.94;4979395;28;20058;-85
2022/05/30 11:50:14;;;;;;;3.40;1.23;;;17.90;68.40;;;-144.05;34.51;125687.94;5006139;28;20042;-86
2022/05/30 11:53:29;;;;;;;5.72;1.50;;;17.70;69.60;;;-144.05;33.63;125687.94;4996463;28;20062;-86
2022/05/30 11:56:39;;;;;;;2.75;1.10;;;17.60;67.40;;;-144.05;33.05;125687.94;4972553;28;20045;-84
2022/05/30 11:59:45;;;;;;;3.03;1.20;;;17.40;65.90;;;-144.05;34.57;125687.94;4979490;28;20094;-87
2022/05/30 12:02:26;;;;;;;4.20;1.20;;;17.30;69.70;;;-144.05;34.12;125687.94;4996649;28;20070;-85
2022/05/30 12:05:26;;;;;;;5.93;1.55;;;17.20;68.90;;;-144.05;34.50;125687.94;4995379;28;20376;-87
2022/05/30 12:08:46;;;;;;;3.03;0.77;;;17.10;69.50;;;-144.05;33.93;125687.94;4972023;28;20035;-85
2022/05/30 12:11:55;;;;;;;0.82;0.60;;;17.20;68.10;;;-144.05;33.94;125687.94;4995468;28;20368;-85
2022/05/30 12:15:03;;;;;;;3.38;1.25;;;17.30;68.20;;;-144.05;32.66;125687.94;4995281;28;20564;-87
2022/05/30 12:24:12;;;;;;;4.38;0.93;;;17.30;70.20;;;-144.05;34.69;125687.94;4980332;28;20128;-85
2022/05/30 12:26:57;;;;;;;3.95;1.10;;;17.40;70.40;;;-144.05;34.31;125687.94;4995450;28;20041;-88
2022/05/30 12:29:42;;;;;;;3.92;1.15;;;17.50;69.10;;;-144.05;33.25;125687.94;4995356;28;20121;-85
2022/05/30 12:32:24;;;;;;;2.17;0.95;;;17.70;66.50;;;-144.05;32.73;125687.94;4995095;28;20027;-85
2022/05/30 12:35:26;;;;;;;2.05;1.00;;;17.80;65.40;;;-144.05;32.32;125687.94;4994925;28;20023;-88
2022/05/30 12:38:02;;;;;;;2.22;1.10;;;17.70;63.20;;;-144.05;31.36;125687.94;4978828;28;20034;-86
2022/05/30 12:40:27;;;;;;;4.82;1.08;;;17.70;61.30;;;-144.05;31.71;125687.94;4993968;28;20098;-86
2022/05/30 12:43:27;;;;;;;3.42;1.17;;;17.70;62.40;;;-144.05;32.63;125687.94;4993754;28;20045;-87
2022/05/30 12:45:56;;;;;;;1.40;0.88;;;17.90;65.20;;;-144.05;32.63;125687.94;4977635;28;20307;-86
2022/05/30 12:48:33;;;;;;;2.75;0.85;;;18.00;64.60;;;-144.05;31.97;125687.94;4994020;28;20027;-86